Cartoogechaye, North Carolina
Current Conditions -  °F | °C
As of 2:55 AM on Saturday 20 Dec 2014 (Local Time) from KRHP Reporting Station
Drizzle Drizzle  
Wind Chill: 38°   Ceiling: 6500
Heat Index: 38°   Visibility: 10mi
Dew Point: 36°   Wind: 3mph
Humidity: 91%   Direction: 150°SSE
Pressure: 30.13"   Gusts: NA
Location:  35.1737°N, 83.4215°W
Report Text: KRHP 200755Z AUTO 15003KT 10SM DZ SCT046 OVC065 03/02 A3013 RMK AO2 T00330020
Loading
Personal Weather Stations






























Interactive Weather Map New forecast layout! Learn more

10-Day Weather Forecast

Advertisements
Track Severe Weather on mobile